createdAt,value
2023-02-02T00:02:14.446Z,97.40
2023-02-02T00:04:40.613Z,97.30
2023-02-02T00:07:06.781Z,97.20
2023-02-02T00:09:33.436Z,97.10
2023-02-02T00:12:00.273Z,97.70
2023-02-02T00:14:26.425Z,97.10
2023-02-02T00:16:53.688Z,96.90
2023-02-02T00:19:31.007Z,97.00
2023-02-02T00:21:57.455Z,96.80
2023-02-02T00:24:23.774Z,96.60
2023-02-02T00:26:52.026Z,96.70
2023-02-02T00:29:25.925Z,96.60
2023-02-02T00:31:52.280Z,96.40
2023-02-02T00:34:18.703Z,96.70
2023-02-02T00:36:45.393Z,96.70
2023-02-02T00:39:15.535Z,96.70
2023-02-02T00:41:41.716Z,96.40
2023-02-02T00:44:26.879Z,96.20
2023-02-02T00:46:53.252Z,96.30
2023-02-02T00:49:19.394Z,96.20
2023-02-02T00:51:45.604Z,96.20
2023-02-02T00:54:14.268Z,95.90
2023-02-02T00:56:41.317Z,96.00
2023-02-02T00:59:07.497Z,95.70
2023-02-02T01:01:33.660Z,95.60
2023-02-02T01:04:00.001Z,95.60
2023-02-02T01:06:27.045Z,95.50
2023-02-02T01:08:53.371Z,95.20
2023-02-02T01:11:19.601Z,95.00
2023-02-02T01:13:46.032Z,94.90
2023-02-02T01:16:12.673Z,94.80
2023-02-02T01:18:39.041Z,94.80
2023-02-02T01:21:08.495Z,94.60
2023-02-02T01:23:36.379Z,94.60
2023-02-02T01:26:04.528Z,94.20
2023-02-02T01:28:30.788Z,94.20
2023-02-02T01:30:57.279Z,93.90
2023-02-02T01:33:25.294Z,94.00
2023-02-02T01:35:55.787Z,94.00
2023-02-02T01:38:23.539Z,93.90
2023-02-02T01:40:54.941Z,93.70
2023-02-02T01:43:52.003Z,93.60
2023-02-02T01:46:21.033Z,93.70
2023-02-02T01:49:09.503Z,93.40
2023-02-02T01:51:52.335Z,93.30
2023-02-02T01:54:28.764Z,93.10
2023-02-02T01:57:03.606Z,93.10
2023-02-02T01:59:29.777Z,93.20
2023-02-02T02:01:56.957Z,93.30
2023-02-02T02:04:23.930Z,93.10
2023-02-02T02:06:52.979Z,93.00
2023-02-02T02:09:19.364Z,93.00
2023-02-02T02:11:45.543Z,92.80
2023-02-02T02:14:32.105Z,92.70
2023-02-02T02:24:24.935Z,92.50
2023-02-02T02:27:13.139Z,92.60
2023-02-02T02:32:52.136Z,92.50
2023-02-02T02:36:03.868Z,91.60
2023-02-02T02:38:42.960Z,92.00
2023-02-02T02:41:16.617Z,92.00
2023-02-02T02:43:46.494Z,92.20
2023-02-02T02:46:13.076Z,92.00
2023-02-02T02:48:39.508Z,92.00
2023-02-02T02:51:51.313Z,92.10
2023-02-02T02:54:26.534Z,92.10
2023-02-02T02:58:35.049Z,91.90
2023-02-02T03:01:14.681Z,91.90
2023-02-02T03:04:27.825Z,91.90
2023-02-02T03:07:18.535Z,91.90
2023-02-02T03:09:44.741Z,91.70
2023-02-02T03:12:10.891Z,91.70
2023-02-02T03:14:39.852Z,91.80
2023-02-02T03:17:06.391Z,91.60
2023-02-02T03:19:32.623Z,91.40
2023-02-02T03:21:58.771Z,91.30
2023-02-02T03:24:25.961Z,91.10
2023-02-02T03:26:52.228Z,91.10
2023-02-02T03:29:18.509Z,91.10
2023-02-02T03:31:45.992Z,91.00
2023-02-02T03:34:12.157Z,91.00
2023-02-02T03:36:38.557Z,90.60
2023-02-02T03:39:04.685Z,90.50
2023-02-02T03:41:31.008Z,90.30
2023-02-02T03:43:58.148Z,90.10
2023-02-02T03:46:24.300Z,90.40
2023-02-02T03:48:50.482Z,90.20
2023-02-02T03:51:16.656Z,90.10
2023-02-02T03:53:49.211Z,90.00
2023-02-02T03:56:15.440Z,90.00
2023-02-02T03:58:41.974Z,90.40
2023-02-02T04:01:11.198Z,90.30
2023-02-02T04:03:37.390Z,90.20
2023-02-02T04:06:03.734Z,89.90
2023-02-02T04:08:30.778Z,89.90
2023-02-02T04:10:58.140Z,89.70
2023-02-02T04:13:24.287Z,89.60
2023-02-02T04:15:59.107Z,89.80
2023-02-02T04:18:25.801Z,89.70
2023-02-02T04:20:59.443Z,89.50
2023-02-02T04:23:25.560Z,89.00
2023-02-02T04:25:51.985Z,89.20
2023-02-02T04:28:18.178Z,89.30
2023-02-02T04:30:44.409Z,88.40
2023-02-02T04:33:11.782Z,89.20
2023-02-02T04:35:38.131Z,88.70
2023-02-02T04:38:05.071Z,88.60
2023-02-02T04:40:32.537Z,88.90
2023-02-02T04:42:59.849Z,88.40
2023-02-02T04:45:26.481Z,88.50
2023-02-02T04:47:52.880Z,88.30
2023-02-02T04:50:19.064Z,87.90
2023-02-02T04:52:45.400Z,88.20
2023-02-02T04:55:11.606Z,88.60
2023-02-02T04:57:37.801Z,88.70
2023-02-02T05:00:05.134Z,88.60
2023-02-02T05:02:31.278Z,88.70
2023-02-02T05:04:57.660Z,88.00
2023-02-02T05:07:23.854Z,87.90
2023-02-02T05:09:50.230Z,88.20
2023-02-02T05:12:17.604Z,88.60
2023-02-02T05:14:43.900Z,88.30
2023-02-02T05:17:10.445Z,88.30
2023-02-02T05:19:36.765Z,87.10
2023-02-02T05:22:03.587Z,88.40
2023-02-02T05:24:29.714Z,88.30
2023-02-02T05:27:00.223Z,88.50
2023-02-02T05:29:27.332Z,88.20
2023-02-02T05:31:54.160Z,87.80
2023-02-02T05:34:20.448Z,88.70
2023-02-02T05:36:46.605Z,88.10
2023-02-02T05:39:13.141Z,87.80
2023-02-02T05:41:39.324Z,88.20
2023-02-02T05:44:05.885Z,88.80
2023-02-02T05:46:32.955Z,89.40
2023-02-02T05:48:59.688Z,90.00
2023-02-02T05:51:31.115Z,90.10
2023-02-02T05:53:59.980Z,90.40
2023-02-02T05:56:27.279Z,91.00
2023-02-02T05:58:53.402Z,91.30
2023-02-02T06:01:21.365Z,91.20
2023-02-02T06:03:47.665Z,90.80
2023-02-02T06:06:14.142Z,90.70
2023-02-02T06:08:40.342Z,90.90
2023-02-02T06:11:11.419Z,91.00
2023-02-02T06:13:37.817Z,91.60
2023-02-02T06:16:05.144Z,91.80
2023-02-02T06:18:31.340Z,91.90
2023-02-02T06:20:58.461Z,92.40
2023-02-02T06:23:24.652Z,92.60
2023-02-02T06:25:51.204Z,92.50
2023-02-02T06:28:17.554Z,92.10
2023-02-02T06:30:44.348Z,92.60
2023-02-02T06:33:11.040Z,92.20
2023-02-02T06:35:38.074Z,92.00
2023-02-02T06:38:04.257Z,91.80
2023-02-02T06:40:31.339Z,92.00
2023-02-02T06:43:01.283Z,91.80
2023-02-02T06:45:28.215Z,91.50
2023-02-02T06:47:58.334Z,91.50
2023-02-02T06:50:25.791Z,91.80
2023-02-02T06:52:52.384Z,91.70
2023-02-02T06:55:18.644Z,91.50
2023-02-02T06:57:46.096Z,92.00
2023-02-02T07:00:13.871Z,91.90
2023-02-02T07:02:43.901Z,91.50
2023-02-02T07:05:10.214Z,91.60
2023-02-02T07:07:36.331Z,91.80
2023-02-02T07:10:02.665Z,91.80
2023-02-02T07:12:29.278Z,91.60
2023-02-02T07:14:56.234Z,91.60
2023-02-02T07:17:22.359Z,91.30
2023-02-02T07:19:48.542Z,91.10
2023-02-02T07:22:16.403Z,91.20
2023-02-02T07:24:43.723Z,91.20
2023-02-02T07:27:11.081Z,91.40
2023-02-02T07:29:37.510Z,91.30
2023-02-02T07:32:04.359Z,91.10
2023-02-02T07:34:30.510Z,91.00
2023-02-02T07:36:57.325Z,91.30
2023-02-02T07:39:23.656Z,91.20
2023-02-02T07:41:50.286Z,91.20
2023-02-02T07:44:16.952Z,91.20
2023-02-02T07:46:44.074Z,90.90
2023-02-02T07:49:17.863Z,91.20
2023-02-02T07:51:47.696Z,91.50
2023-02-02T07:54:14.457Z,92.20
2023-02-02T07:56:41.696Z,91.80
2023-02-02T07:59:09.652Z,91.70
2023-02-02T08:01:35.992Z,92.10
2023-02-02T08:04:02.948Z,92.00
2023-02-02T08:06:31.703Z,91.50
2023-02-02T08:08:58.566Z,91.30
2023-02-02T08:11:25.557Z,91.20
2023-02-02T08:13:54.278Z,90.90
2023-02-02T08:16:20.546Z,91.20
2023-02-02T08:18:46.896Z,91.30
2023-02-02T08:21:13.174Z,91.20
2023-02-02T08:23:40.999Z,91.10
2023-02-02T08:26:19.196Z,91.20
2023-02-02T08:28:47.515Z,91.50
2023-02-02T08:31:19.301Z,91.80
2023-02-02T08:33:45.808Z,92.80
2023-02-02T08:36:13.591Z,93.40
2023-02-02T08:38:40.051Z,93.70
2023-02-02T08:41:07.341Z,94.10
2023-02-02T08:43:34.325Z,94.10
2023-02-02T08:46:05.296Z,93.60
2023-02-02T08:48:33.018Z,93.50
2023-02-02T08:50:59.953Z,93.80
2023-02-02T08:53:26.456Z,94.20
2023-02-02T08:56:05.197Z,92.70
2023-02-02T08:58:33.435Z,92.40
2023-02-02T09:01:14.525Z,91.90
2023-02-02T09:03:42.636Z,91.10
2023-02-02T09:06:13.763Z,89.60
2023-02-02T09:08:40.643Z,89.10
2023-02-02T09:11:15.955Z,88.40
2023-02-02T09:13:44.924Z,87.60
2023-02-02T09:16:12.273Z,87.00
2023-02-02T09:18:39.424Z,89.10
2023-02-02T09:21:06.917Z,87.10
2023-02-02T09:23:34.790Z,87.20
2023-02-02T09:26:24.727Z,87.00
2023-02-02T09:28:58.680Z,87.70
2023-02-02T09:31:26.275Z,88.60
2023-02-02T09:33:53.269Z,90.30
2023-02-02T09:36:21.561Z,91.10
2023-02-02T09:38:48.252Z,90.30
2023-02-02T09:48:26.632Z,90.90
2023-02-02T09:50:57.719Z,90.00
2023-02-02T09:53:54.593Z,89.80
2023-02-02T09:56:41.232Z,89.00
2023-02-02T09:59:20.526Z,88.30
2023-02-02T10:01:49.448Z,87.10
2023-02-02T10:04:38.420Z,87.60
2023-02-02T10:07:13.531Z,87.40
2023-02-02T10:09:58.663Z,87.70
2023-02-02T10:13:27.915Z,87.40
2023-02-02T10:16:04.115Z,84.60
2023-02-02T10:18:48.148Z,83.90
2023-02-02T10:22:17.883Z,84.60
2023-02-02T10:24:44.291Z,84.40
2023-02-02T10:27:15.192Z,84.10
2023-02-02T10:30:00.505Z,83.90
2023-02-02T10:32:35.200Z,82.50
2023-02-02T10:35:56.080Z,82.20
2023-02-02T10:40:14.278Z,80.30
2023-02-02T10:43:41.129Z,79.60
2023-02-02T10:46:11.179Z,77.60
2023-02-02T10:48:43.711Z,79.30
2023-02-02T10:53:02.278Z,78.20
2023-02-02T10:55:32.801Z,79.30
2023-02-02T10:58:27.521Z,78.90
2023-02-02T11:00:55.144Z,79.70
2023-02-02T11:03:23.090Z,78.20
2023-02-02T11:06:08.193Z,78.40
2023-02-02T11:08:58.963Z,77.90
2023-02-02T11:11:44.982Z,79.30
2023-02-02T11:14:18.180Z,78.50
2023-02-02T11:16:46.084Z,78.50
2023-02-02T11:19:31.180Z,78.40
2023-02-02T11:21:59.997Z,76.90
2023-02-02T11:24:42.086Z,75.50
2023-02-02T11:27:20.931Z,74.50
2023-02-02T11:29:59.441Z,74.40
2023-02-02T11:32:31.311Z,71.70
2023-02-02T11:35:30.837Z,73.50
2023-02-02T11:38:18.232Z,74.20
2023-02-02T11:41:45.391Z,71.70
2023-02-02T11:44:26.509Z,74.50
2023-02-02T11:46:52.768Z,73.30
2023-02-02T11:49:20.734Z,72.10
2023-02-02T11:52:06.728Z,72.20
2023-02-02T11:54:37.161Z,71.30
2023-02-02T11:57:07.447Z,70.90
2023-02-02T11:59:41.300Z,72.80
2023-02-02T12:02:26.222Z,74.90
2023-02-02T12:05:15.393Z,80.60
2023-02-02T12:07:44.847Z,83.90
2023-02-02T12:10:27.206Z,84.40
2023-02-02T12:13:23.988Z,81.80
2023-02-02T12:16:22.360Z,81.80
2023-02-02T12:23:54.196Z,80.70
2023-02-02T12:28:24.575Z,79.30
2023-02-02T12:32:49.805Z,82.10
2023-02-02T12:38:02.239Z,83.80
2023-02-02T12:43:18.495Z,86.70
2023-02-02T12:47:22.513Z,89.60
2023-02-02T12:56:45.193Z,90.70
2023-02-02T13:02:23.624Z,92.20
2023-02-02T13:04:58.413Z,92.90
2023-02-02T13:07:49.743Z,92.70
2023-02-02T13:10:39.777Z,93.00
2023-02-02T13:13:16.171Z,93.20
2023-02-02T13:15:47.215Z,93.70
2023-02-02T13:18:41.667Z,92.80
2023-02-02T13:21:17.717Z,92.60
2023-02-02T13:23:51.393Z,93.40
2023-02-02T13:26:26.359Z,94.40
2023-02-02T13:29:28.229Z,95.00
2023-02-02T13:32:04.047Z,95.40
2023-02-02T13:34:45.977Z,96.10
2023-02-02T13:40:52.748Z,96.90
2023-02-02T13:44:06.342Z,96.80
2023-02-02T13:46:53.981Z,96.70
2023-02-02T13:49:35.408Z,96.80
2023-02-02T13:57:17.371Z,96.80
2023-02-02T14:00:17.802Z,97.70
2023-02-02T14:02:58.501Z,97.20
2023-02-02T14:05:29.425Z,96.90
2023-02-02T14:08:18.279Z,96.60
2023-02-02T14:10:58.805Z,96.90
2023-02-02T14:14:10.139Z,97.40
2023-02-02T14:16:47.454Z,97.20
2023-02-02T14:19:57.391Z,96.90
2023-02-02T14:22:53.892Z,96.40
2023-02-02T14:26:39.152Z,96.10
2023-02-02T14:29:36.208Z,95.90
2023-02-02T14:32:47.853Z,96.00
2023-02-02T14:36:01.361Z,95.50
2023-02-02T14:38:55.839Z,95.80
2023-02-02T14:43:45.869Z,95.60
2023-02-02T14:46:34.285Z,95.30
2023-02-02T14:49:12.809Z,95.50
2023-02-02T14:51:56.566Z,95.70
2023-02-02T14:54:25.912Z,95.70
2023-02-02T14:57:05.075Z,95.80
2023-02-02T14:59:39.044Z,95.90
2023-02-02T15:05:40.333Z,95.60
2023-02-02T15:08:27.085Z,96.10
2023-02-02T15:10:59.451Z,96.10
2023-02-02T15:13:28.744Z,99.80
2023-02-02T15:16:09.947Z,95.90
2023-02-02T15:18:43.306Z,95.80
2023-02-02T15:21:09.897Z,95.60
2023-02-02T15:23:41.640Z,95.80
2023-02-02T15:26:24.442Z,95.90
2023-02-02T15:29:02.292Z,95.80
2023-02-02T15:31:41.392Z,95.80
2023-02-02T15:34:46.167Z,95.90
2023-02-02T15:37:15.736Z,94.30
2023-02-02T15:39:48.590Z,93.50
2023-02-02T15:42:39.315Z,93.30
2023-02-02T15:45:06.790Z,93.30
2023-02-02T15:47:36.993Z,92.50
2023-02-02T15:50:05.673Z,92.10
2023-02-02T15:52:34.922Z,92.00
2023-02-02T15:55:01.405Z,91.10
2023-02-02T15:57:35.988Z,91.30
2023-02-02T16:00:55.389Z,90.40
2023-02-02T16:03:25.607Z,90.70
2023-02-02T16:05:54.001Z,90.20
2023-02-02T16:08:34.537Z,90.60
2023-02-02T16:11:09.559Z,90.50
2023-02-02T16:13:36.071Z,90.00
2023-02-02T16:16:06.170Z,87.60
2023-02-02T16:18:33.403Z,83.70
2023-02-02T16:21:03.144Z,82.50
2023-02-02T16:23:34.204Z,83.10
2023-02-02T16:26:01.766Z,83.80
2023-02-02T16:28:29.127Z,84.30
2023-02-02T16:30:59.639Z,84.80
2023-02-02T16:33:47.491Z,86.00
2023-02-02T16:36:26.211Z,85.40
2023-02-02T16:38:54.508Z,85.70
2023-02-02T16:41:54.516Z,86.40
2023-02-02T16:45:33.895Z,86.00
2023-02-02T16:48:39.839Z,87.20
2023-02-02T16:52:10.124Z,87.30
2023-02-02T16:57:04.099Z,84.40
2023-02-02T16:59:34.929Z,84.60
2023-02-02T17:02:22.332Z,85.20
2023-02-02T17:04:51.813Z,85.20
2023-02-02T17:07:18.752Z,84.40
2023-02-02T17:09:47.297Z,84.90
2023-02-02T17:12:34.544Z,84.70
2023-02-02T17:15:24.877Z,84.70
2023-02-02T17:17:53.131Z,84.50
2023-02-02T17:20:19.401Z,83.80
2023-02-02T17:22:47.907Z,84.60
2023-02-02T17:25:17.232Z,82.60
2023-02-02T17:27:45.268Z,82.70
2023-02-02T17:30:16.415Z,82.80
2023-02-02T17:32:43.045Z,83.60
2023-02-02T17:35:24.721Z,82.50
2023-02-02T17:37:52.411Z,83.60
2023-02-02T17:40:20.670Z,82.90
2023-02-02T17:42:50.617Z,84.70
2023-02-02T17:45:22.549Z,83.90
2023-02-02T17:47:52.547Z,83.80
2023-02-02T17:50:20.328Z,83.70
2023-02-02T17:52:48.135Z,83.40
2023-02-02T17:55:35.842Z,84.30
2023-02-02T17:58:02.604Z,82.10
2023-02-02T18:00:31.297Z,81.30
2023-02-02T18:03:16.260Z,80.20
2023-02-02T18:05:43.708Z,81.00
2023-02-02T18:08:12.024Z,80.60
2023-02-02T18:10:40.657Z,80.20
2023-02-02T18:13:07.878Z,80.60
2023-02-02T18:15:34.787Z,81.40
2023-02-02T18:18:01.380Z,82.30
2023-02-02T18:20:28.039Z,82.90
2023-02-02T18:22:54.535Z,81.90
2023-02-02T18:25:22.976Z,81.50
2023-02-02T18:27:52.071Z,82.20
2023-02-02T18:30:20.342Z,82.00
2023-02-02T18:32:47.393Z,82.30
2023-02-02T18:35:17.227Z,82.10
2023-02-02T18:37:43.507Z,81.60
2023-02-02T18:40:12.227Z,81.20
2023-02-02T18:42:38.453Z,80.20
2023-02-02T18:45:07.221Z,80.60
2023-02-02T18:47:35.310Z,79.70
2023-02-02T18:50:02.212Z,79.20
2023-02-02T18:52:32.629Z,80.30
2023-02-02T18:55:00.424Z,79.40
2023-02-02T18:57:29.114Z,80.20
2023-02-02T18:59:55.691Z,78.90
2023-02-02T19:02:22.335Z,78.90
2023-02-02T19:05:08.423Z,77.90
2023-02-02T19:07:53.777Z,76.00
2023-02-02T19:10:22.016Z,75.10
2023-02-02T19:13:19.765Z,76.30
2023-02-02T19:15:48.354Z,77.10
2023-02-02T19:18:22.667Z,76.20
2023-02-02T19:20:50.399Z,77.60
2023-02-02T19:23:25.611Z,76.90
2023-02-02T19:25:54.392Z,76.30
2023-02-02T19:28:29.146Z,76.70
2023-02-02T19:30:58.048Z,78.30
2023-02-02T19:34:26.800Z,77.00
2023-02-02T19:36:54.972Z,80.40
2023-02-02T19:39:28.621Z,79.10
2023-02-02T19:41:59.423Z,79.20
2023-02-02T19:44:32.947Z,79.90
2023-02-02T19:47:02.884Z,79.60
2023-02-02T19:49:37.103Z,80.20
2023-02-02T19:52:06.243Z,81.30
2023-02-02T19:54:44.222Z,80.80
2023-02-02T19:57:29.720Z,80.40
2023-02-02T19:59:56.700Z,89.40
2023-02-02T20:03:14.389Z,79.90
2023-02-02T20:05:46.545Z,79.20
2023-02-02T20:09:17.015Z,79.70
2023-02-02T20:11:56.394Z,79.30
2023-02-02T20:14:30.246Z,79.20
2023-02-02T20:17:22.763Z,79.50
2023-02-02T20:19:50.231Z,78.40
2023-02-02T20:22:30.212Z,79.50
2023-02-02T20:24:57.979Z,81.10
2023-02-02T20:27:30.886Z,81.90
2023-02-02T20:30:20.286Z,82.30
2023-02-02T20:32:49.828Z,82.70
2023-02-02T20:35:26.459Z,85.00
2023-02-02T20:37:55.210Z,83.20
2023-02-02T20:40:26.975Z,83.60
2023-02-02T20:42:59.808Z,83.70
2023-02-02T20:45:27.128Z,85.20
2023-02-02T20:47:54.441Z,84.80
2023-02-02T20:50:25.204Z,84.70
2023-02-02T20:52:54.714Z,85.80
2023-02-02T20:55:23.595Z,86.80
2023-02-02T20:57:50.543Z,87.80
2023-02-02T21:00:21.163Z,87.60
2023-02-02T21:02:53.705Z,88.30
2023-02-02T21:05:21.880Z,86.80
2023-02-02T21:07:54.164Z,85.70
2023-02-02T21:10:22.737Z,86.00
2023-02-02T21:12:51.882Z,87.30
2023-02-02T21:15:18.481Z,87.60
2023-02-02T21:17:44.810Z,86.50
2023-02-02T21:20:14.421Z,87.60
2023-02-02T21:22:41.093Z,87.70
2023-02-02T21:25:07.973Z,87.80
2023-02-02T21:27:35.385Z,88.70
2023-02-02T21:30:02.729Z,89.30
2023-02-02T21:32:30.396Z,89.40
2023-02-02T21:34:58.547Z,88.90
2023-02-02T21:37:25.276Z,89.30
2023-02-02T21:39:55.875Z,89.10
2023-02-02T21:42:24.062Z,89.30
2023-02-02T21:44:58.811Z,90.00
2023-02-02T21:47:34.309Z,90.00
2023-02-02T21:53:34.859Z,90.50
2023-02-02T21:56:02.525Z,90.80
2023-02-02T21:58:33.208Z,91.30
2023-02-02T22:01:24.348Z,91.60
2023-02-02T22:03:50.893Z,91.80
2023-02-02T22:06:29.054Z,92.30
2023-02-02T22:15:47.774Z,92.50
2023-02-02T22:18:25.658Z,94.70
2023-02-02T22:20:53.884Z,94.40
2023-02-02T22:23:22.127Z,95.00
2023-02-02T22:25:49.897Z,95.00
2023-02-02T22:28:25.720Z,94.20
2023-02-02T22:30:54.399Z,94.70
2023-02-02T22:33:20.744Z,95.30
2023-02-02T22:38:21.010Z,95.00
2023-02-02T22:40:48.071Z,96.00
2023-02-02T22:43:16.206Z,96.30
2023-02-02T22:45:43.145Z,95.80
2023-02-02T22:48:09.769Z,96.10
2023-02-02T22:50:36.557Z,99.90
2023-02-02T22:53:03.370Z,97.20
2023-02-02T22:55:30.046Z,99.90
2023-02-02T22:57:56.397Z,99.90
2023-02-02T23:00:28.402Z,96.90
2023-02-02T23:02:54.994Z,99.90
2023-02-02T23:05:22.066Z,98.10
2023-02-02T23:07:48.765Z,98.30
2023-02-02T23:10:17.213Z,99.90
2023-02-02T23:12:44.332Z,98.70
2023-02-02T23:15:10.867Z,99.90
2023-02-02T23:17:37.687Z,98.60
2023-02-02T23:20:05.069Z,98.30
2023-02-02T23:27:24.977Z,99.90
2023-02-02T23:29:51.212Z,98.90
2023-02-02T23:32:18.775Z,99.00
2023-02-02T23:34:45.187Z,99.00
2023-02-02T23:39:37.935Z,99.90
2023-02-02T23:42:04.144Z,98.80
2023-02-02T23:46:56.858Z,97.90
2023-02-02T23:49:23.770Z,98.50
2023-02-02T23:51:50.220Z,99.90
2023-02-02T23:54:16.376Z,98.70
